Time;durP1;ratioP1;P1;durP2;ratioP2;P2;SDS_P1;SDS_P2;PMS_P1;PMS_P2;Temp;Humidity;BMP_temperature;BMP_pressure;BME280_temperature;BME280_humidity;BME280_pressure;Samples;Min_cycle;Max_cycle;Signal;HPM_P1;HPM_P2
2020/12/28 00:00:56;;;;;;;16.48;10.20;;;2.30;87.60;;;;;;2052280;28;20486;-73
2020/12/28 00:02:00;;;;;;;15.38;9.85;;;2.40;87.50;;;;;;2064770;28;20042;-72
2020/12/28 00:03:01;;;;;;;16.73;10.73;;;2.40;87.40;;;;;;2064485;28;20035;-73
2020/12/28 00:04:01;;;;;;;14.73;9.80;;;2.40;87.60;;;;;;2048305;29;20051;-73
2020/12/28 00:05:09;;;;;;;16.02;9.95;;;2.40;87.80;;;;;;2048448;28;20447;-73
2020/12/28 00:06:10;;;;;;;15.35;9.98;;;2.40;87.80;;;;;;2048044;28;20426;-69
2020/12/28 00:07:13;;;;;;;14.43;10.15;;;2.40;87.70;;;;;;2048363;28;20074;-70
2020/12/28 00:08:14;;;;;;;15.27;9.90;;;2.40;87.70;;;;;;2048374;28;20027;-69
2020/12/28 00:09:15;;;;;;;16.27;10.10;;;2.40;87.80;;;;;;2048228;28;20108;-69
2020/12/28 00:10:16;;;;;;;14.18;9.73;;;2.40;88.00;;;;;;2048352;28;20035;-70
2020/12/28 00:11:18;;;;;;;16.05;10.40;;;2.40;87.90;;;;;;2048240;28;20427;-70
2020/12/28 00:12:19;;;;;;;16.42;10.00;;;2.40;87.80;;;;;;2047615;28;20055;-71
2020/12/28 00:13:19;;;;;;;14.52;9.32;;;2.40;87.80;;;;;;2047426;29;20043;-70
2020/12/28 00:14:20;;;;;;;14.98;9.75;;;2.40;88.00;;;;;;2047765;29;20175;-70
2020/12/28 00:15:29;;;;;;;15.77;9.85;;;2.40;88.00;;;;;;2048217;28;20098;-70
2020/12/28 00:16:30;;;;;;;15.48;10.15;;;2.40;88.10;;;;;;2050448;28;20035;-70
2020/12/28 00:17:31;;;;;;;15.45;9.82;;;2.40;88.30;;;;;;2056210;28;20057;-71
2020/12/28 00:18:32;;;;;;;16.35;10.20;;;2.50;88.30;;;;;;2056033;28;20027;-69
2020/12/28 00:19:32;;;;;;;13.95;9.52;;;2.50;88.30;;;;;;2056209;28;20034;-70
2020/12/28 00:20:33;;;;;;;15.38;9.27;;;2.50;88.30;;;;;;2056409;28;20145;-68
2020/12/28 00:21:34;;;;;;;23.23;9.88;;;2.50;88.30;;;;;;2055630;28;20487;-69
2020/12/28 00:22:35;;;;;;;12.93;9.07;;;2.50;88.40;;;;;;2056187;28;20053;-71
2020/12/28 00:23:36;;;;;;;13.90;8.95;;;2.50;88.20;;;;;;2047462;29;20070;-70
2020/12/28 00:24:36;;;;;;;16.65;9.50;;;2.60;88.00;;;;;;2047542;28;20061;-69
2020/12/28 00:25:37;;;;;;;14.70;9.60;;;2.60;87.90;;;;;;2056238;28;20031;-70
2020/12/28 00:26:39;;;;;;;13.85;9.43;;;2.60;88.00;;;;;;2055723;28;20023;-69
2020/12/28 00:27:41;;;;;;;13.88;9.00;;;2.60;88.00;;;;;;2055563;28;20027;-67
2020/12/28 00:28:41;;;;;;;13.70;9.55;;;2.60;88.20;;;;;;2055439;28;20026;-67
2020/12/28 00:29:42;;;;;;;13.65;9.52;;;2.60;88.20;;;;;;2055749;28;20035;-68
2020/12/28 00:30:43;;;;;;;14.23;9.93;;;2.60;88.40;;;;;;2055876;28;20026;-70
2020/12/28 00:31:44;;;;;;;16.23;10.40;;;2.50;88.60;;;;;;2055701;28;20041;-69
2020/12/28 00:32:44;;;;;;;24.90;13.80;;;2.50;88.70;;;;;;2056266;28;20569;-71
2020/12/28 00:33:45;;;;;;;14.65;10.05;;;2.50;88.80;;;;;;2055110;28;20054;-73
2020/12/28 00:34:46;;;;;;;15.27;9.50;;;2.60;88.70;;;;;;2046749;28;20034;-71
2020/12/28 00:35:46;;;;;;;13.20;9.40;;;2.60;88.70;;;;;;2054797;28;20058;-71
2020/12/28 00:36:47;;;;;;;18.35;11.25;;;2.60;88.60;;;;;;2055033;28;20026;-71
2020/12/28 00:37:48;;;;;;;13.65;9.55;;;2.60;88.80;;;;;;2055204;28;20401;-71
2020/12/28 00:38:48;;;;;;;15.20;9.63;;;2.60;88.80;;;;;;2055430;28;20117;-71
2020/12/28 00:39:49;;;;;;;14.57;9.63;;;2.60;88.70;;;;;;2056078;28;20058;-71
2020/12/28 00:40:50;;;;;;;17.48;10.43;;;2.60;88.80;;;;;;2056022;28;20030;-72
2020/12/28 00:41:50;;;;;;;15.27;9.60;;;2.60;88.70;;;;;;2055659;28;20022;-71
2020/12/28 00:42:51;;;;;;;13.60;9.65;;;2.60;88.70;;;;;;2056093;28;20090;-71
2020/12/28 00:43:52;;;;;;;14.68;10.07;;;2.60;88.70;;;;;;2056003;28;20047;-71
2020/12/28 00:44:52;;;;;;;13.95;10.10;;;2.60;88.70;;;;;;2056083;28;20437;-71
2020/12/28 00:45:53;;;;;;;21.63;13.13;;;2.60;88.80;;;;;;2056024;28;20025;-71
2020/12/28 00:46:54;;;;;;;14.50;10.13;;;2.60;88.80;;;;;;2055996;28;20019;-71
2020/12/28 00:47:54;;;;;;;15.77;10.25;;;2.60;88.70;;;;;;2056055;28;20110;-71
2020/12/28 00:48:55;;;;;;;13.57;9.98;;;2.60;88.80;;;;;;2055628;28;20042;-74
2020/12/28 00:49:56;;;;;;;14.27;9.90;;;2.70;88.80;;;;;;2056039;28;20068;-74
2020/12/28 00:50:57;;;;;;;15.75;9.82;;;2.70;88.80;;;;;;2047960;29;20086;-73
2020/12/28 00:51:57;;;;;;;14.60;9.68;;;2.70;88.70;;;;;;2047424;28;20118;-74
2020/12/28 00:52:58;;;;;;;14.90;10.20;;;2.70;88.50;;;;;;2048228;28;20027;-74
2020/12/28 00:54:04;;;;;;;14.10;9.55;;;2.70;88.50;;;;;;2048919;28;20027;-73
2020/12/28 00:55:06;;;;;;;14.05;9.63;;;2.70;88.50;;;;;;2048365;29;20520;-73
2020/12/28 00:56:08;;;;;;;15.20;10.20;;;2.70;88.50;;;;;;2056230;28;20034;-73
2020/12/28 00:57:09;;;;;;;15.70;10.43;;;2.70;88.30;;;;;;2048625;29;20563;-74
2020/12/28 00:58:10;;;;;;;14.82;9.82;;;2.80;88.40;;;;;;2048273;28;20530;-73
2020/12/28 00:59:12;;;;;;;14.55;9.90;;;2.70;88.20;;;;;;2048526;28;20035;-74
2020/12/28 01:00:13;;;;;;;14.15;10.07;;;2.80;88.40;;;;;;2056011;28;20023;-73
2020/12/28 01:01:21;;;;;;;14.02;9.75;;;2.70;88.20;;;;;;2055503;28;20037;-73
2020/12/28 01:02:22;;;;;;;14.57;9.93;;;2.80;88.40;;;;;;2055857;28;20031;-73
2020/12/28 01:03:32;;;;;;;13.93;9.65;;;2.70;88.40;;;;;;2055941;28;20430;-73
2020/12/28 01:04:51;;;;;;;14.43;10.13;;;2.80;88.40;;;;;;2056366;28;20039;-73
2020/12/28 01:05:56;;;;;;;12.70;9.50;;;2.80;88.30;;;;;;2047927;29;20568;-74
2020/12/28 01:06:58;;;;;;;14.55;10.10;;;2.80;88.20;;;;;;2048391;28;20653;-73
2020/12/28 01:08:17;;;;;;;12.98;9.75;;;2.80;88.20;;;;;;2050740;28;20031;-73
2020/12/28 01:09:19;;;;;;;13.93;9.75;;;2.80;88.40;;;;;;2056140;28;20096;-73
2020/12/28 01:10:19;;;;;;;14.27;10.00;;;2.80;88.30;;;;;;2055995;28;20113;-73
2020/12/28 01:11:26;;;;;;;15.10;9.80;;;2.80;88.10;;;;;;2055579;28;20805;-73
2020/12/28 01:12:33;;;;;;;13.38;9.68;;;2.80;88.00;;;;;;2056194;28;20039;-73
2020/12/28 01:13:40;;;;;;;14.13;10.00;;;2.90;88.00;;;;;;2056660;28;20121;-74
2020/12/28 01:14:42;;;;;;;14.65;9.90;;;2.90;88.20;;;;;;2056141;28;20486;-74
2020/12/28 01:15:44;;;;;;;14.45;10.25;;;2.80;88.00;;;;;;2048281;28;20636;-74
2020/12/28 01:16:50;;;;;;;14.02;9.98;;;2.80;88.10;;;;;;2055939;28;20035;-74
2020/12/28 01:17:51;;;;;;;15.73;10.00;;;2.80;88.10;;;;;;2047937;28;20019;-74
2020/12/28 01:19:04;;;;;;;13.73;9.82;;;2.80;88.10;;;;;;2049665;28;20030;-74
2020/12/28 01:20:08;;;;;;;16.30;10.23;;;2.90;88.00;;;;;;2048411;28;20743;-74
2020/12/28 01:21:21;;;;;;;15.00;10.40;;;2.90;88.00;;;;;;2040247;29;20031;-74
2020/12/28 01:22:23;;;;;;;14.25;9.88;;;2.90;88.10;;;;;;2049868;28;20027;-75
2020/12/28 01:23:24;;;;;;;15.57;9.98;;;2.90;88.70;;;;;;2055764;28;20082;-73
2020/12/28 01:24:42;;;;;;;14.18;9.85;;;2.90;88.00;;;;;;2050504;28;20175;-73
2020/12/28 01:25:43;;;;;;;14.63;10.30;;;2.80;88.10;;;;;;2048159;28;20486;-73
2020/12/28 01:26:44;;;;;;;14.73;9.85;;;2.90;88.10;;;;;;2048172;28;20514;-73
2020/12/28 01:27:45;;;;;;;14.18;9.88;;;2.90;88.20;;;;;;2048434;28;20110;-73
2020/12/28 01:28:47;;;;;;;14.55;10.25;;;2.80;88.90;;;;;;2056236;28;20030;-74
2020/12/28 01:29:48;;;;;;;14.98;10.45;;;2.80;88.20;;;;;;2056966;28;20069;-73
2020/12/28 01:30:50;;;;;;;14.18;9.80;;;2.90;88.20;;;;;;2047970;28;20051;-73
2020/12/28 01:32:10;;;;;;;13.80;9.60;;;2.90;88.10;;;;;;2050845;28;20039;-74
2020/12/28 01:33:28;;;;;;;14.77;10.15;;;2.90;88.00;;;;;;2056087;28;20027;-73
2020/12/28 01:34:33;;;;;;;13.98;9.88;;;2.90;88.00;;;;;;2048637;28;20034;-73
2020/12/28 01:35:38;;;;;;;13.45;9.77;;;2.90;88.00;;;;;;2040613;29;20487;-73
2020/12/28 01:36:40;;;;;;;15.18;10.40;;;2.90;88.00;;;;;;2041086;28;20024;-73
2020/12/28 01:37:51;;;;;;;;;;;2.90;88.00;;;;;;2049742;28;20438;-73
2020/12/28 01:38:51;;;;;;;14.95;10.20;;;2.90;88.00;;;;;;2047772;29;19958;-74
2020/12/28 01:39:52;;;;;;;16.35;10.35;;;2.90;88.10;;;;;;2039949;29;20110;-73
2020/12/28 01:40:56;;;;;;;17.75;10.45;;;2.90;88.10;;;;;;2040680;28;20024;-73
2020/12/28 01:42:17;;;;;;;14.85;10.15;;;2.90;88.20;;;;;;2057455;28;20027;-73
2020/12/28 01:43:27;;;;;;;15.50;10.77;;;2.90;88.30;;;;;;2050162;28;20054;-74
2020/12/28 01:44:28;;;;;;;16.75;11.15;;;2.90;88.50;;;;;;2050271;28;20039;-73
2020/12/28 01:45:38;;;;;;;16.05;10.52;;;2.80;88.50;;;;;;2051212;29;20055;-73
2020/12/28 01:46:41;;;;;;;15.63;10.02;;;2.80;88.60;;;;;;2053523;28;20126;-73
2020/12/28 01:47:42;;;;;;;14.25;10.05;;;2.80;88.60;;;;;;2059432;28;20041;-72
2020/12/28 01:48:47;;;;;;;15.80;10.35;;;2.90;88.70;;;;;;2058277;28;20078;-72
2020/12/28 01:49:52;;;;;;;14.55;10.07;;;2.90;88.50;;;;;;2050602;28;20430;-72
2020/12/28 01:50:52;;;;;;;15.50;10.30;;;2.90;88.50;;;;;;2049762;28;20065;-73
2020/12/28 01:51:55;;;;;;;14.60;10.30;;;2.90;88.40;;;;;;2057254;28;20557;-75
2020/12/28 01:52:56;;;;;;;15.57;10.30;;;2.90;88.30;;;;;;2057622;28;20058;-72
2020/12/28 01:54:02;;;;;;;15.95;10.32;;;2.90;88.30;;;;;;2047795;28;20031;-73
2020/12/28 01:55:18;;;;;;;14.85;10.05;;;3.00;88.30;;;;;;2057051;28;20034;-72
2020/12/28 01:56:29;;;;;;;;;;;3.00;88.10;;;;;;2056999;28;20110;-73
2020/12/28 01:57:30;;;;;;;14.73;10.05;;;3.00;88.10;;;;;;2056934;28;19910;-72
2020/12/28 01:58:38;;;;;;;14.43;9.98;;;3.00;88.20;;;;;;2056831;28;20031;-72
2020/12/28 01:59:39;;;;;;;14.48;10.23;;;3.00;88.30;;;;;;2057019;28;20050;-73
2020/12/28 02:00:47;;;;;;;14.60;9.93;;;3.00;88.40;;;;;;2056896;28;20544;-72
2020/12/28 02:01:51;;;;;;;15.02;9.98;;;3.00;88.20;;;;;;2048368;28;20517;-72
2020/12/28 02:02:54;;;;;;;15.18;10.23;;;3.00;88.20;;;;;;2049229;28;20031;-72
2020/12/28 02:04:11;;;;;;;13.95;9.85;;;3.00;88.10;;;;;;2058692;28;20038;-72
2020/12/28 02:05:17;;;;;;;15.52;9.95;;;3.10;87.80;;;;;;2056726;28;20063;-73
2020/12/28 02:06:20;;;;;;;14.05;9.60;;;3.00;87.60;;;;;;2056393;28;20035;-73
2020/12/28 02:07:23;;;;;;;13.45;9.70;;;3.00;87.60;;;;;;2056752;28;20030;-72
2020/12/28 02:08:24;;;;;;;16.92;10.23;;;3.10;88.50;;;;;;2056810;28;20051;-73
2020/12/28 02:09:25;;;;;;;14.75;10.05;;;3.10;87.80;;;;;;2056780;28;20677;-73
2020/12/28 02:10:26;;;;;;;14.30;9.98;;;3.10;87.70;;;;;;2056963;28;20122;-72
2020/12/28 02:11:28;;;;;;;13.27;9.73;;;3.10;87.60;;;;;;2056526;28;20846;-72
2020/12/28 02:12:28;;;;;;;15.93;10.30;;;3.10;87.60;;;;;;2056853;28;20037;-72
2020/12/28 02:13:30;;;;;;;16.08;10.57;;;3.10;87.60;;;;;;2056586;28;20734;-72
2020/12/28 02:15:09;;;;;;;15.00;9.90;;;3.10;88.40;;;;;;2045697;28;20032;-73
2020/12/28 02:16:33;;;;;;;15.63;9.75;;;3.10;87.70;;;;;;2056853;28;20066;-71
2020/12/28 02:17:41;;;;;;;16.38;10.13;;;3.10;87.70;;;;;;2053221;28;20062;-72
2020/12/28 02:18:49;;;;;;;15.05;9.85;;;3.10;87.60;;;;;;2049980;28;20491;-72
2020/12/28 02:19:57;;;;;;;13.90;9.68;;;3.10;87.50;;;;;;2050063;28;20090;-72
2020/12/28 02:20:58;;;;;;;12.93;9.68;;;3.10;87.30;;;;;;2049042;29;20023;-72
2020/12/28 02:21:59;;;;;;;14.82;10.05;;;3.10;87.30;;;;;;2048857;29;20490;-73
2020/12/28 02:23:07;;;;;;;15.18;9.95;;;3.10;87.20;;;;;;2050381;28;20043;-72
2020/12/28 02:24:08;;;;;;;13.18;9.70;;;3.10;87.30;;;;;;2047133;28;20095;-72
2020/12/28 02:25:12;;;;;;;15.27;10.07;;;3.10;87.30;;;;;;2057123;28;20031;-72
2020/12/28 02:26:15;;;;;;;15.13;10.40;;;3.10;87.30;;;;;;2052763;28;20557;-71
2020/12/28 02:27:15;;;;;;;14.05;9.95;;;3.10;87.20;;;;;;2041425;29;20036;-71
2020/12/28 02:28:17;;;;;;;14.63;10.18;;;3.20;87.20;;;;;;2045350;28;20027;-72
2020/12/28 02:29:18;;;;;;;15.60;10.40;;;3.20;87.30;;;;;;2065770;28;20045;-71
2020/12/28 02:30:19;;;;;;;13.38;9.55;;;3.20;87.30;;;;;;2065272;28;20106;-71
2020/12/28 02:31:39;;;;;;;;;;;3.20;87.30;;;;;;2057505;28;20182;-72
2020/12/28 02:32:46;;;;;;;15.30;10.07;;;3.10;87.30;;;;;;2056807;28;19952;-72
2020/12/28 02:33:59;;;;;;;16.08;9.50;;;3.20;87.30;;;;;;2056999;28;20233;-71
2020/12/28 02:35:06;;;;;;;14.02;10.00;;;3.20;87.30;;;;;;2050179;28;20063;-72
2020/12/28 02:36:15;;;;;;;13.68;9.80;;;3.20;87.20;;;;;;2050059;28;20086;-71
2020/12/28 02:37:16;;;;;;;15.13;9.80;;;3.20;87.20;;;;;;2049103;28;20604;-71
2020/12/28 02:38:35;;;;;;;14.32;9.77;;;3.20;87.30;;;;;;2051037;28;20031;-72
2020/12/28 02:39:36;;;;;;;13.93;9.75;;;3.20;87.40;;;;;;2049594;28;20514;-71
2020/12/28 02:40:37;;;;;;;15.50;10.13;;;3.10;87.30;;;;;;2049752;29;20102;-71
2020/12/28 02:41:38;;;;;;;14.75;10.52;;;3.20;87.30;;;;;;2058647;28;20054;-74
2020/12/28 02:42:57;;;;;;;14.90;10.07;;;3.20;87.30;;;;;;2052861;28;20530;-71
2020/12/28 02:44:17;;;;;;;15.32;10.07;;;3.20;87.20;;;;;;2059599;28;20047;-71
2020/12/28 02:45:36;;;;;;;16.10;10.13;;;3.20;87.40;;;;;;2057102;28;20046;-71
2020/12/28 02:46:55;;;;;;;15.95;10.50;;;3.20;87.20;;;;;;2056900;28;20042;-71
2020/12/28 02:48:14;;;;;;;14.23;9.55;;;3.20;87.10;;;;;;2057286;28;20043;-71
2020/12/28 02:49:33;;;;;;;14.95;10.20;;;3.20;87.10;;;;;;2057344;28;20070;-72
2020/12/28 02:50:53;;;;;;;15.32;9.80;;;3.20;87.10;;;;;;2056712;28;20042;-72
2020/12/28 02:52:12;;;;;;;14.80;9.95;;;3.10;87.20;;;;;;2056341;28;20030;-71
2020/12/28 02:53:31;;;;;;;14.77;10.00;;;3.20;87.30;;;;;;2050492;28;20031;-71
2020/12/28 02:54:50;;;;;;;14.90;10.27;;;3.20;87.80;;;;;;2048921;29;20030;-71
2020/12/28 02:56:09;;;;;;;14.00;9.77;;;3.10;87.30;;;;;;2048904;29;20031;-71
2020/12/28 02:57:29;;;;;;;15.82;10.10;;;3.20;87.10;;;;;;2049327;29;20142;-71
2020/12/28 02:58:48;;;;;;;15.93;10.60;;;3.20;87.10;;;;;;2049402;29;20395;-71
2020/12/28 03:00:07;;;;;;;15.40;9.82;;;3.10;87.00;;;;;;2056804;28;20035;-71
2020/12/28 03:01:26;;;;;;;16.75;10.50;;;3.10;87.20;;;;;;2051695;28;20035;-72
2020/12/28 03:02:45;;;;;;;15.02;10.35;;;3.20;87.30;;;;;;2049045;29;20031;-72
2020/12/28 03:04:04;;;;;;;15.07;9.52;;;3.10;87.30;;;;;;2049172;29;20043;-72
2020/12/28 03:05:23;;;;;;;13.32;9.40;;;3.10;87.10;;;;;;2049241;29;20035;-72
2020/12/28 03:06:42;;;;;;;15.18;10.05;;;3.20;87.40;;;;;;2049425;29;20039;-73
2020/12/28 03:08:12;;;;;;;14.50;9.65;;;3.20;87.30;;;;;;2039913;29;20213;-73
2020/12/28 03:09:31;;;;;;;15.40;9.82;;;3.20;86.80;;;;;;2041461;28;20047;-72
2020/12/28 03:10:50;;;;;;;12.88;9.20;;;3.20;86.80;;;;;;2053227;28;20052;-73
2020/12/28 03:12:09;;;;;;;14.63;9.98;;;3.20;86.70;;;;;;2047872;29;20043;-72
2020/12/28 03:13:28;;;;;;;15.43;9.90;;;3.20;86.80;;;;;;2048907;29;20071;-71
2020/12/28 03:14:47;;;;;;;14.75;10.30;;;3.20;86.90;;;;;;2054634;29;20573;-72
2020/12/28 03:16:14;;;;;;;14.45;9.95;;;3.20;86.90;;;;;;2034405;28;20044;-73
2020/12/28 03:17:33;;;;;;;14.75;10.43;;;3.10;87.00;;;;;;2057098;28;20106;-73
2020/12/28 03:18:52;;;;;;;15.57;10.07;;;3.10;87.20;;;;;;2057565;28;20050;-74
2020/12/28 03:20:11;;;;;;;16.23;10.70;;;3.10;87.60;;;;;;2056823;28;20027;-73
2020/12/28 03:21:41;;;;;;;15.18;10.10;;;3.10;87.50;;;;;;2053181;28;20090;-72
2020/12/28 03:23:00;;;;;;;14.88;10.18;;;3.10;87.30;;;;;;2048389;28;20031;-73
2020/12/28 03:24:20;;;;;;;14.40;10.10;;;3.10;87.40;;;;;;2048624;29;20050;-73
2020/12/28 03:25:39;;;;;;;16.45;10.70;;;3.10;87.30;;;;;;2049041;29;20494;-73
2020/12/28 03:27:02;;;;;;;14.60;10.23;;;3.10;87.30;;;;;;2049283;29;20031;-73
2020/12/28 03:28:21;;;;;;;14.98;10.68;;;3.10;87.40;;;;;;2049699;29;20439;-73
2020/12/28 03:29:41;;;;;;;13.13;10.05;;;3.10;87.50;;;;;;2049357;29;20040;-73
2020/12/28 03:31:00;;;;;;;15.18;10.73;;;3.10;87.40;;;;;;2049216;29;20537;-73
2020/12/28 03:32:19;;;;;;;16.33;10.85;;;3.10;87.30;;;;;;2048879;29;20043;-74
2020/12/28 03:33:38;;;;;;;15.43;10.63;;;3.10;87.40;;;;;;2049401;29;20043;-74
2020/12/28 03:34:57;;;;;;;15.93;10.93;;;3.10;87.60;;;;;;2049106;29;20031;-73
2020/12/28 03:36:16;;;;;;;17.23;11.18;;;3.10;87.60;;;;;;2049032;29;20110;-74
2020/12/28 03:37:35;;;;;;;14.70;10.77;;;3.10;87.60;;;;;;2049346;29;20032;-73
2020/12/28 03:38:54;;;;;;;16.30;10.85;;;3.10;87.60;;;;;;2049128;29;20035;-73
2020/12/28 03:40:14;;;;;;;16.15;10.90;;;3.10;87.90;;;;;;2049154;29;20063;-73
2020/12/28 03:41:33;;;;;;;16.55;11.23;;;3.10;88.00;;;;;;2049146;29;20027;-73
2020/12/28 03:42:52;;;;;;;16.15;11.23;;;3.00;87.90;;;;;;2049147;29;20035;-74
2020/12/28 03:44:16;;;;;;;15.60;10.80;;;3.10;87.90;;;;;;2032125;29;20059;-73
2020/12/28 03:45:35;;;;;;;16.25;11.40;;;3.00;87.90;;;;;;2048922;29;20442;-73
2020/12/28 03:46:54;;;;;;;15.63;11.05;;;3.00;87.90;;;;;;2048985;29;20055;-73
2020/12/28 03:48:13;;;;;;;16.20;11.23;;;3.00;88.00;;;;;;2049224;29;20043;-73
2020/12/28 03:49:32;;;;;;;17.17;11.73;;;3.00;88.10;;;;;;2049303;29;20031;-74
2020/12/28 03:51:08;;;;;;;15.40;11.05;;;3.00;88.00;;;;;;2056110;28;20708;-74
2020/12/28 03:52:28;;;;;;;16.40;11.18;;;3.00;88.10;;;;;;2048036;29;20035;-74
2020/12/28 03:53:47;;;;;;;15.65;11.00;;;3.00;88.10;;;;;;2048695;29;20035;-73
2020/12/28 03:55:07;;;;;;;15.88;10.95;;;3.00;88.20;;;;;;2049123;29;20520;-74
2020/12/28 03:56:26;;;;;;;19.05;11.43;;;3.00;88.40;;;;;;2049038;29;20107;-73
2020/12/28 03:57:45;;;;;;;18.00;11.32;;;3.00;88.40;;;;;;2049169;29;20031;-73
2020/12/28 03:59:04;;;;;;;16.30;11.13;;;3.00;88.40;;;;;;2049156;29;20031;-74
2020/12/28 04:00:43;;;;;;;17.90;11.38;;;2.90;88.40;;;;;;2056068;28;20031;-74
2020/12/28 04:02:02;;;;;;;16.77;11.63;;;2.90;88.60;;;;;;2056125;28;20031;-73
2020/12/28 04:03:22;;;;;;;16.27;11.05;;;3.00;88.70;;;;;;2055867;28;20043;-74
2020/12/28 04:04:49;;;;;;;15.50;11.25;;;2.90;88.50;;;;;;2034075;28;20064;-73
2020/12/28 04:06:16;;;;;;;15.02;10.82;;;2.90;88.40;;;;;;2025930;29;20043;-73
2020/12/28 04:07:35;;;;;;;15.50;11.30;;;2.90;88.40;;;;;;2049027;29;20019;-73
2020/12/28 04:09:07;;;;;;;18.27;12.15;;;2.90;88.60;;;;;;2048884;29;20396;-73
2020/12/28 04:10:37;;;;;;;16.25;12.02;;;2.90;88.50;;;;;;2032227;29;20044;-73
2020/12/28 04:11:47;;;;;;;16.25;11.63;;;2.90;88.40;;;;;;2032458;29;20036;-73
2020/12/28 04:12:55;;;;;;;15.30;11.38;;;2.90;88.70;;;;;;2040754;29;20459;-73
2020/12/28 04:13:56;;;;;;;16.73;11.70;;;2.90;88.70;;;;;;2048269;29;20027;-73
2020/12/28 04:14:57;;;;;;;16.75;12.00;;;2.90;88.70;;;;;;2048988;28;20756;-73
2020/12/28 04:15:59;;;;;;;16.98;11.73;;;2.90;88.80;;;;;;2049087;29;20019;-73
2020/12/28 04:16:59;;;;;;;17.33;12.10;;;2.90;88.60;;;;;;2048680;28;20027;-73
2020/12/28 04:18:00;;;;;;;17.50;11.85;;;2.90;88.60;;;;;;2048639;29;20106;-74
2020/12/28 04:19:01;;;;;;;16.55;12.18;;;2.90;88.70;;;;;;2048049;29;20130;-73
2020/12/28 04:20:02;;;;;;;16.80;11.80;;;2.90;88.70;;;;;;2048309;29;20026;-74
2020/12/28 04:21:03;;;;;;;16.42;11.77;;;2.90;88.70;;;;;;2048933;28;20070;-73
2020/12/28 04:22:03;;;;;;;17.80;11.55;;;2.90;88.80;;;;;;2053486;28;20432;-73
2020/12/28 04:23:04;;;;;;;16.98;11.55;;;2.90;88.90;;;;;;2056265;28;20497;-73
2020/12/28 04:24:05;;;;;;;16.92;11.98;;;2.90;88.80;;;;;;2056949;28;20035;-73
2020/12/28 04:25:06;;;;;;;17.40;12.10;;;2.90;88.80;;;;;;2056933;28;20026;-73
2020/12/28 04:26:06;;;;;;;17.58;11.35;;;2.90;88.90;;;;;;2056676;28;20043;-73
2020/12/28 04:27:07;;;;;;;15.77;11.43;;;2.90;88.90;;;;;;2056013;28;20034;-74
2020/12/28 04:28:08;;;;;;;17.55;12.60;;;2.90;88.90;;;;;;2056380;28;20027;-73
2020/12/28 04:29:12;;;;;;;17.85;11.77;;;2.90;88.90;;;;;;2057083;28;20054;-73
2020/12/28 04:30:13;;;;;;;16.92;11.95;;;2.90;88.90;;;;;;2056545;28;20046;-73
2020/12/28 04:31:13;;;;;;;18.33;11.73;;;2.90;88.90;;;;;;2056529;28;20498;-73
2020/12/28 04:32:15;;;;;;;17.60;12.40;;;2.90;88.80;;;;;;2057079;28;20034;-73
2020/12/28 04:33:16;;;;;;;18.45;11.75;;;2.90;88.70;;;;;;2056923;28;20037;-73
2020/12/28 04:34:16;;;;;;;17.17;12.07;;;2.90;88.80;;;;;;2057179;28;20562;-74
2020/12/28 04:35:17;;;;;;;17.27;12.18;;;2.90;88.70;;;;;;2057070;28;20030;-73
2020/12/28 04:36:18;;;;;;;17.90;12.65;;;2.90;88.70;;;;;;2057044;28;20026;-74
2020/12/28 04:37:19;;;;;;;15.70;11.68;;;2.90;88.70;;;;;;2056928;28;20037;-73
2020/12/28 04:38:19;;;;;;;18.20;12.38;;;3.00;88.60;;;;;;2056841;28;20109;-73
2020/12/28 04:39:20;;;;;;;18.83;12.18;;;3.00;88.60;;;;;;2057060;28;20063;-74
2020/12/28 04:40:21;;;;;;;17.10;11.73;;;2.90;88.40;;;;;;2057163;28;20034;-73
2020/12/28 04:41:21;;;;;;;16.73;11.63;;;2.90;88.40;;;;;;2056904;28;20031;-73
2020/12/28 04:42:27;;;;;;;16.73;12.05;;;2.90;88.60;;;;;;2057238;28;20030;-73
2020/12/28 04:43:28;;;;;;;17.48;12.65;;;2.90;88.70;;;;;;2048623;29;20083;-73
2020/12/28 04:44:29;;;;;;;17.27;12.48;;;2.90;88.80;;;;;;2048766;28;20518;-73
2020/12/28 04:45:30;;;;;;;19.88;12.77;;;2.90;88.70;;;;;;2057418;28;20027;-73
2020/12/28 04:46:31;;;;;;;17.33;12.43;;;2.90;88.70;;;;;;2057448;28;20438;-73
2020/12/28 04:47:32;;;;;;;18.08;12.82;;;3.00;88.60;;;;;;2057974;28;20038;-74
2020/12/28 04:48:33;;;;;;;17.63;12.73;;;3.00;88.50;;;;;;2057288;28;20500;-73
2020/12/28 04:49:36;;;;;;;18.27;12.68;;;3.00;88.50;;;;;;2057843;28;20042;-73
2020/12/28 04:50:38;;;;;;;17.15;12.50;;;2.90;88.50;;;;;;2058288;28;20031;-73
2020/12/28 04:51:39;;;;;;;18.90;12.60;;;3.00;88.50;;;;;;2057416;28;20026;-74
2020/12/28 04:52:40;;;;;;;20.02;12.45;;;2.90;88.60;;;;;;2056777;28;20565;-73
2020/12/28 04:53:42;;;;;;;18.45;12.95;;;2.90;88.70;;;;;;2057537;28;20019;-73
2020/12/28 04:54:45;;;;;;;19.60;13.48;;;2.90;88.80;;;;;;2057715;28;20034;-73
2020/12/28 04:55:46;;;;;;;18.02;12.55;;;2.90;88.70;;;;;;2057174;28;20102;-73
2020/12/28 04:56:47;;;;;;;18.92;12.77;;;3.00;89.30;;;;;;2057356;28;20027;-74
2020/12/28 04:57:47;;;;;;;18.80;13.27;;;3.00;88.60;;;;;;2057431;28;20033;-74
2020/12/28 04:58:48;;;;;;;17.98;12.55;;;3.00;88.70;;;;;;2057145;28;20027;-73
2020/12/28 04:59:56;;;;;;;16.98;12.60;;;3.00;88.60;;;;;;2056916;28;20023;-73
2020/12/28 05:00:58;;;;;;;18.15;12.52;;;3.00;88.50;;;;;;2057150;28;20470;-73
2020/12/28 05:01:59;;;;;;;18.30;12.30;;;3.00;88.40;;;;;;2056468;28;20018;-73
2020/12/28 05:03:00;;;;;;;18.48;13.18;;;3.00;88.50;;;;;;2056505;28;20015;-73
2020/12/28 05:04:01;;;;;;;21.77;12.50;;;3.00;88.60;;;;;;2048423;29;20107;-73
2020/12/28 05:05:06;;;;;;;18.73;12.88;;;3.00;88.60;;;;;;2048432;29;20067;-73
2020/12/28 05:06:08;;;;;;;16.65;12.35;;;2.90;88.60;;;;;;2048883;28;20426;-73
2020/12/28 05:07:09;;;;;;;18.52;12.65;;;3.00;88.90;;;;;;2056448;28;20057;-73
2020/12/28 05:08:09;;;;;;;19.35;12.45;;;2.90;88.90;;;;;;2056903;28;20026;-74
2020/12/28 05:09:10;;;;;;;17.95;12.40;;;2.90;89.60;;;;;;2056247;28;20482;-73
2020/12/28 05:10:20;;;;;;;15.48;11.73;;;2.90;88.90;;;;;;2056165;28;20031;-73
2020/12/28 05:11:21;;;;;;;17.25;11.63;;;3.00;88.80;;;;;;2055894;28;20433;-74
2020/12/28 05:12:22;;;;;;;16.27;11.32;;;3.00;88.90;;;;;;2056111;28;20046;-73
2020/12/28 05:13:23;;;;;;;17.80;11.93;;;3.00;88.80;;;;;;2056157;28;20050;-73
2020/12/28 05:14:24;;;;;;;16.85;11.57;;;3.00;88.70;;;;;;2056955;28;20114;-73
2020/12/28 05:15:25;;;;;;;16.90;11.13;;;3.00;88.70;;;;;;2056891;28;20058;-73
2020/12/28 05:16:25;;;;;;;16.17;10.88;;;3.00;88.80;;;;;;2057620;28;20498;-74
2020/12/28 05:17:26;;;;;;;19.45;11.60;;;3.00;88.80;;;;;;2058382;28;20497;-74
2020/12/28 05:18:27;;;;;;;17.20;11.30;;;3.00;88.80;;;;;;2058525;28;20106;-73
2020/12/28 05:19:28;;;;;;;17.27;11.60;;;3.00;88.80;;;;;;2058493;28;20102;-74
2020/12/28 05:20:29;;;;;;;16.48;11.48;;;3.10;88.90;;;;;;2057888;28;20422;-73
2020/12/28 05:21:29;;;;;;;16.17;11.07;;;3.10;88.80;;;;;;2057681;28;20027;-74
2020/12/28 05:22:33;;;;;;;14.55;10.82;;;3.10;88.70;;;;;;2058578;28;20401;-73
2020/12/28 05:23:34;;;;;;;16.38;11.20;;;3.10;88.50;;;;;;2057728;28;20031;-74
2020/12/28 05:24:34;;;;;;;16.50;11.02;;;3.10;88.40;;;;;;2057642;28;20047;-73
2020/12/28 05:25:36;;;;;;;15.75;11.20;;;3.10;88.30;;;;;;2058382;28;20035;-73
2020/12/28 05:26:40;;;;;;;14.50;10.90;;;3.10;88.20;;;;;;2058132;28;20496;-73
2020/12/28 05:27:46;;;;;;;16.83;11.27;;;3.10;88.00;;;;;;2058331;28;20026;-73
2020/12/28 05:28:53;;;;;;;15.75;10.77;;;3.10;88.00;;;;;;2058248;28;20066;-73
2020/12/28 05:29:54;;;;;;;15.85;10.43;;;3.10;88.00;;;;;;2057744;28;20026;-73
2020/12/28 05:30:59;;;;;;;15.13;10.75;;;3.20;88.00;;;;;;2057656;28;20035;-73
2020/12/28 05:32:00;;;;;;;15.90;10.68;;;3.10;87.80;;;;;;2058218;28;20050;-73
2020/12/28 05:33:03;;;;;;;17.23;11.43;;;3.10;87.60;;;;;;2058232;28;20026;-73
2020/12/28 05:34:04;;;;;;;16.73;11.02;;;3.20;87.70;;;;;;2057864;28;20030;-73
2020/12/28 05:35:05;;;;;;;15.35;11.05;;;3.20;87.60;;;;;;2057721;28;20109;-74
2020/12/28 05:36:05;;;;;;;15.27;10.23;;;3.20;87.60;;;;;;2058149;28;20015;-73
2020/12/28 05:37:06;;;;;;;15.40;10.32;;;3.20;87.70;;;;;;2058314;28;20510;-74
2020/12/28 05:38:08;;;;;;;15.85;10.75;;;3.20;87.50;;;;;;2058216;28;20181;-73
2020/12/28 05:39:12;;;;;;;14.77;10.50;;;3.20;87.50;;;;;;2058317;28;20168;-73
2020/12/28 05:40:14;;;;;;;15.30;10.52;;;3.20;87.50;;;;;;2057641;28;20082;-74
2020/12/28 05:41:25;;;;;;;16.15;10.82;;;3.20;87.50;;;;;;2057584;28;20030;-73
2020/12/28 05:42:26;;;;;;;15.93;10.80;;;3.20;87.60;;;;;;2058242;28;20054;-73
2020/12/28 05:43:28;;;;;;;16.92;10.90;;;3.20;87.60;;;;;;2058253;28;20027;-74
2020/12/28 05:44:29;;;;;;;14.75;10.30;;;3.20;87.70;;;;;;2058215;28;20595;-73
2020/12/28 05:45:32;;;;;;;16.05;10.73;;;3.20;87.50;;;;;;2057894;28;20034;-73
2020/12/28 05:46:33;;;;;;;16.33;10.70;;;3.20;87.50;;;;;;2057403;28;20027;-73